メインページ
METAR-TAF:

METAR-TAF

空港 :

グアム国際空港

ハガニア, グアム, アメリカ合衆国

緯度: 13-29N, 経度: 144-48E, 海抜: 91m

現時点の気象観測

当レポートは51分前の02:54(UTC)に作成
東/北東の風 18kt、最大24ktの突風を伴う
気温 31°C
湿度 59%
気圧 1014 hPa
視程: 16.1km
高度2800ftの雲はほとんどない
高度3200ftの雲はほとんどない
高度4300ftの千切れ雲あり

METAR: PGUM 250254Z 06018G24KT 10SM FEW028 FEW032 BKN043 31/22 A2994 RMK AO2 SLP132 T03060222 58013

時間: 13:45 (03:45 UTC)

予報

当レポートは4時間5分前の23:40(UTC)に作成
予報は25日の 00時(UTC)から 26日の 06時(UTC)まで有効
北東の風 18kt、最大25ktの突風を伴う
視程: 10km
高度2000ftの雲はほとんどない
高度5000ftの雲は散在している
25日の 0800時(UTC)から
東/北東の風 12kt
視程: 10km
高度2000ftの雲はほとんどない
高度5000ftの雲は散在している
近辺でにわか雨
25日の 2300時(UTC)から
の風 16kt
視程: 10km
高度2000ftの雲はほとんどない
高度4000ftの雲は散在している

TAF: PGUM 242340Z 2500/2606 05018G25KT P6SM FEW020 SCT050 FM250800 06012KT P6SM VCSH FEW020 SCT050 FM252300 09016KT P6SM FEW020 SCT040

4,000以上の空港の気象観測と天気予報(METAR報とTAF報)

利用可能な観測所は地図上に黄色い丸と赤い丸で示す。

丸の上にカーソルを重ねると観測所名を参照できる。

次にクリックすると気象観測と天気予報を参照できる。

マップの切り替え:黒色「×」印の緑ボタンをクリックして拡大、「-」印の緑ボタンをクリックして縮小、緑色の三角印をクリックして隣りの地図に切り替え


METAR-TAF: